Aurora, Illinois
Current Conditions -  °F | °C
As of 1:52 AM on Friday 24 Oct 2014 (Local Time) from KARR Reporting Station
Overcast Overcast  
Wind Chill: 52°   Ceiling: 2600
Heat Index: 52°   Visibility: 8mi
Dew Point: 44°   Wind: 3mph
Humidity: 74%   Direction: 170°S
Pressure: 30.05"   Gusts: NA
Location:  41.76°N, 88.31°W
Report Text: KARR 240652Z AUTO 17003KT 8SM OVC026 11/07 A3005 RMK AO2 SLP178 T01110067
Loading
Personal Weather Stations






























Interactive Weather Map
Tropical Storm Tracking
New forecast layout! Learn more

10-Day Weather Forecast

Advertisements
Track Severe Weather on mobile